sensor_id;sensor_type;location;lat;lon;timestamp;pressure;altitude;pressure_sealevel;temperature;humidity
12215;BME280;6170;42.206;24.142;2022-10-26T00:01:41;99153.91;;;18.02;56.61
12215;BME280;6170;42.206;24.142;2022-10-26T00:04:09;99170.69;;;17.99;56.68
12215;BME280;6170;42.206;24.142;2022-10-26T00:06:36;99135.50;;;17.75;56.77
12215;BME280;6170;42.206;24.142;2022-10-26T00:09:03;99159.56;;;17.72;57.50
12215;BME280;6170;42.206;24.142;2022-10-26T00:11:30;99152.84;;;17.63;57.84
12215;BME280;6170;42.206;24.142;2022-10-26T00:13:58;99149.16;;;17.57;57.38
12215;BME280;6170;42.206;24.142;2022-10-26T00:16:26;99153.34;;;17.48;58.09
12215;BME280;6170;42.206;24.142;2022-10-26T00:18:54;99158.97;;;17.46;57.91
12215;BME280;6170;42.206;24.142;2022-10-26T00:21:22;99147.34;;;17.34;58.04
12215;BME280;6170;42.206;24.142;2022-10-26T00:23:49;99167.25;;;17.28;58.26
12215;BME280;6170;42.206;24.142;2022-10-26T00:26:16;99166.03;;;17.36;58.30
12215;BME280;6170;42.206;24.142;2022-10-26T00:28:43;99162.19;;;17.43;57.94
12215;BME280;6170;42.206;24.142;2022-10-26T00:31:12;99167.59;;;17.43;58.18
12215;BME280;6170;42.206;24.142;2022-10-26T00:33:40;99168.50;;;17.49;57.57
12215;BME280;6170;42.206;24.142;2022-10-26T00:36:07;99172.38;;;17.53;57.71
12215;BME280;6170;42.206;24.142;2022-10-26T00:38:36;99170.38;;;17.48;58.33
12215;BME280;6170;42.206;24.142;2022-10-26T00:41:04;99165.94;;;17.31;58.70
12215;BME280;6170;42.206;24.142;2022-10-26T00:43:36;99158.41;;;17.21;59.40
12215;BME280;6170;42.206;24.142;2022-10-26T00:46:08;99162.53;;;17.12;59.29
12215;BME280;6170;42.206;24.142;2022-10-26T00:48:40;99145.47;;;17.12;59.30
12215;BME280;6170;42.206;24.142;2022-10-26T00:51:14;99165.00;;;17.25;59.60
12215;BME280;6170;42.206;24.142;2022-10-26T00:53:44;99164.19;;;17.25;59.42
12215;BME280;6170;42.206;24.142;2022-10-26T00:56:12;99152.28;;;17.37;59.09
12215;BME280;6170;42.206;24.142;2022-10-26T00:58:39;99147.78;;;17.55;58.89
12215;BME280;6170;42.206;24.142;2022-10-26T01:01:06;99150.47;;;17.78;58.08
12215;BME280;6170;42.206;24.142;2022-10-26T01:03:34;99144.72;;;17.63;58.42
12215;BME280;6170;42.206;24.142;2022-10-26T01:06:03;99155.09;;;17.66;58.41
12215;BME280;6170;42.206;24.142;2022-10-26T01:08:31;99154.56;;;17.80;58.26
12215;BME280;6170;42.206;24.142;2022-10-26T01:11:00;99158.13;;;17.81;58.42
12215;BME280;6170;42.206;24.142;2022-10-26T01:13:29;99156.34;;;17.75;58.26
12215;BME280;6170;42.206;24.142;2022-10-26T01:16:08;99156.28;;;17.58;58.61
12215;BME280;6170;42.206;24.142;2022-10-26T01:18:46;99164.41;;;17.70;58.65
12215;BME280;6170;42.206;24.142;2022-10-26T01:21:43;99177.78;;;17.88;58.32
12215;BME280;6170;42.206;24.142;2022-10-26T01:27:26;99162.63;;;17.64;58.91
12215;BME280;6170;42.206;24.142;2022-10-26T01:30:29;99159.44;;;17.67;58.99
12215;BME280;6170;42.206;24.142;2022-10-26T01:33:20;99165.00;;;17.60;59.00
12215;BME280;6170;42.206;24.142;2022-10-26T01:35:54;99187.91;;;17.92;58.56
12215;BME280;6170;42.206;24.142;2022-10-26T01:38:31;99161.91;;;17.68;59.39
12215;BME280;6170;42.206;24.142;2022-10-26T01:41:04;99170.66;;;17.59;59.31
12215;BME280;6170;42.206;24.142;2022-10-26T01:43:38;99155.56;;;17.63;59.26
12215;BME280;6170;42.206;24.142;2022-10-26T01:46:09;99156.59;;;17.73;59.10
12215;BME280;6170;42.206;24.142;2022-10-26T01:48:38;99156.72;;;17.67;59.42
12215;BME280;6170;42.206;24.142;2022-10-26T01:51:08;99159.31;;;17.73;59.22
12215;BME280;6170;42.206;24.142;2022-10-26T01:53:43;99155.69;;;17.68;59.55
12215;BME280;6170;42.206;24.142;2022-10-26T01:56:13;99140.84;;;17.47;59.44
12215;BME280;6170;42.206;24.142;2022-10-26T02:02:11;99160.97;;;17.63;59.70
12215;BME280;6170;42.206;24.142;2022-10-26T02:05:01;99161.09;;;17.56;60.10
12215;BME280;6170;42.206;24.142;2022-10-26T02:07:35;99163.47;;;17.64;59.83
12215;BME280;6170;42.206;24.142;2022-10-26T02:10:15;99149.81;;;17.59;60.15
12215;BME280;6170;42.206;24.142;2022-10-26T02:12:51;99154.50;;;17.64;59.58
12215;BME280;6170;42.206;24.142;2022-10-26T02:15:24;99154.50;;;17.64;59.76
12215;BME280;6170;42.206;24.142;2022-10-26T02:17:58;99177.19;;;17.86;59.51
12215;BME280;6170;42.206;24.142;2022-10-26T02:20:29;99165.53;;;17.85;59.05
12215;BME280;6170;42.206;24.142;2022-10-26T02:23:00;99149.91;;;17.64;59.68
12215;BME280;6170;42.206;24.142;2022-10-26T02:25:31;99153.78;;;17.68;59.93
12215;BME280;6170;42.206;24.142;2022-10-26T02:28:03;99144.72;;;17.63;59.88
12215;BME280;6170;42.206;24.142;2022-10-26T02:30:32;99142.34;;;17.55;59.82
12215;BME280;6170;42.206;24.142;2022-10-26T02:33:04;99141.31;;;17.32;60.84
12215;BME280;6170;42.206;24.142;2022-10-26T02:35:34;99144.63;;;17.34;60.38
12215;BME280;6170;42.206;24.142;2022-10-26T02:38:05;99165.69;;;17.56;60.69
12215;BME280;6170;42.206;24.142;2022-10-26T02:40:35;99165.09;;;17.53;60.24
12215;BME280;6170;42.206;24.142;2022-10-26T02:43:05;99149.34;;;17.39;60.65
12215;BME280;6170;42.206;24.142;2022-10-26T02:45:37;99146.97;;;17.31;60.66
12215;BME280;6170;42.206;24.142;2022-10-26T02:48:07;99176.06;;;17.35;60.86
12215;BME280;6170;42.206;24.142;2022-10-26T02:50:39;99162.06;;;17.15;61.22
12215;BME280;6170;42.206;24.142;2022-10-26T02:53:13;99137.56;;;16.98;60.74
12215;BME280;6170;42.206;24.142;2022-10-26T02:55:45;99154.88;;;17.09;60.99
12215;BME280;6170;42.206;24.142;2022-10-26T02:58:17;99170.75;;;17.05;61.17
12215;BME280;6170;42.206;24.142;2022-10-26T03:00:45;99166.53;;;17.10;60.98
12215;BME280;6170;42.206;24.142;2022-10-26T03:03:14;99173.81;;;17.09;61.07
12215;BME280;6170;42.206;24.142;2022-10-26T03:05:42;99164.75;;;16.92;61.55
12215;BME280;6170;42.206;24.142;2022-10-26T03:08:09;99169.22;;;16.98;61.40
12215;BME280;6170;42.206;24.142;2022-10-26T03:10:40;99174.91;;;17.08;61.07
12215;BME280;6170;42.206;24.142;2022-10-26T03:13:08;99181.72;;;17.11;60.68
12215;BME280;6170;42.206;24.142;2022-10-26T03:15:35;99214.44;;;17.09;61.28
12215;BME280;6170;42.206;24.142;2022-10-26T03:18:03;99185.22;;;16.88;61.39
12215;BME280;6170;42.206;24.142;2022-10-26T03:20:33;99183.47;;;16.93;61.66
12215;BME280;6170;42.206;24.142;2022-10-26T03:23:00;99174.16;;;16.48;61.66
12215;BME280;6170;42.206;24.142;2022-10-26T03:25:27;99196.81;;;16.65;61.79
12215;BME280;6170;42.206;24.142;2022-10-26T03:27:58;99201.41;;;16.65;61.94
12215;BME280;6170;42.206;24.142;2022-10-26T03:30:26;99189.53;;;16.66;62.20
12215;BME280;6170;42.206;24.142;2022-10-26T03:32:54;99194.78;;;16.31;63.51
12215;BME280;6170;42.206;24.142;2022-10-26T03:35:21;99184.78;;;16.01;63.95
12215;BME280;6170;42.206;24.142;2022-10-26T03:37:50;99199.34;;;16.18;63.73
12215;BME280;6170;42.206;24.142;2022-10-26T03:40:17;99202.72;;;16.14;63.82
12215;BME280;6170;42.206;24.142;2022-10-26T03:42:44;99196.16;;;16.22;64.11
12215;BME280;6170;42.206;24.142;2022-10-26T03:45:11;99204.41;;;16.27;64.01
12215;BME280;6170;42.206;24.142;2022-10-26T03:47:45;99195.69;;;16.25;64.21
12215;BME280;6170;42.206;24.142;2022-10-26T03:50:14;99201.97;;;16.07;64.41
12215;BME280;6170;42.206;24.142;2022-10-26T03:52:41;99191.97;;;16.07;64.21
12215;BME280;6170;42.206;24.142;2022-10-26T03:55:10;99186.81;;;16.06;64.81
12215;BME280;6170;42.206;24.142;2022-10-26T03:57:40;99197.63;;;16.06;64.75
12215;BME280;6170;42.206;24.142;2022-10-26T04:00:09;99207.84;;;16.04;65.04
12215;BME280;6170;42.206;24.142;2022-10-26T04:02:36;99205.75;;;16.06;64.70
12215;BME280;6170;42.206;24.142;2022-10-26T04:05:04;99211.72;;;16.08;64.58
12215;BME280;6170;42.206;24.142;2022-10-26T04:07:32;99213.16;;;16.10;64.63
12215;BME280;6170;42.206;24.142;2022-10-26T04:09:59;99202.88;;;16.01;64.63
12215;BME280;6170;42.206;24.142;2022-10-26T04:12:27;99209.94;;;16.02;64.35
12215;BME280;6170;42.206;24.142;2022-10-26T04:14:54;99241.91;;;16.23;64.27
12215;BME280;6170;42.206;24.142;2022-10-26T04:17:22;99211.00;;;16.01;64.36
12215;BME280;6170;42.206;24.142;2022-10-26T04:19:49;99209.03;;;16.08;64.52
12215;BME280;6170;42.206;24.142;2022-10-26T04:22:16;99206.25;;;16.14;63.95
12215;BME280;6170;42.206;24.142;2022-10-26T04:24:44;99210.81;;;16.14;63.61
12215;BME280;6170;42.206;24.142;2022-10-26T04:27:11;99212.03;;;16.18;64.04
12215;BME280;6170;42.206;24.142;2022-10-26T04:29:39;99211.19;;;16.17;64.22
12215;BME280;6170;42.206;24.142;2022-10-26T04:32:06;99208.44;;;16.06;64.42
12215;BME280;6170;42.206;24.142;2022-10-26T04:34:33;99208.97;;;15.96;64.51
12215;BME280;6170;42.206;24.142;2022-10-26T04:37:00;99213.66;;;15.71;65.40
12215;BME280;6170;42.206;24.142;2022-10-26T04:39:27;99206.59;;;15.70;65.44
12215;BME280;6170;42.206;24.142;2022-10-26T04:41:54;99230.22;;;15.56;65.83
12215;BME280;6170;42.206;24.142;2022-10-26T04:44:21;99236.59;;;15.62;66.15
12215;BME280;6170;42.206;24.142;2022-10-26T04:46:50;99229.91;;;15.64;65.84
12215;BME280;6170;42.206;24.142;2022-10-26T04:49:17;99225.25;;;15.71;65.80
12215;BME280;6170;42.206;24.142;2022-10-26T04:51:44;99229.25;;;15.87;65.53
12215;BME280;6170;42.206;24.142;2022-10-26T04:54:11;99232.09;;;15.92;65.61
12215;BME280;6170;42.206;24.142;2022-10-26T04:56:38;99233.88;;;15.98;65.23
12215;BME280;6170;42.206;24.142;2022-10-26T04:59:05;99230.75;;;16.01;64.97
12215;BME280;6170;42.206;24.142;2022-10-26T05:01:32;99261.94;;;16.15;65.47
12215;BME280;6170;42.206;24.142;2022-10-26T05:04:01;99241.56;;;16.01;65.89
12215;BME280;6170;42.206;24.142;2022-10-26T05:06:28;99247.53;;;16.22;65.44
12215;BME280;6170;42.206;24.142;2022-10-26T05:08:55;99246.19;;;16.31;64.91
12215;BME280;6170;42.206;24.142;2022-10-26T05:11:23;99251.69;;;16.54;64.50
12215;BME280;6170;42.206;24.142;2022-10-26T05:13:50;99256.97;;;16.79;63.61
12215;BME280;6170;42.206;24.142;2022-10-26T05:16:17;99264.19;;;16.85;63.93
12215;BME280;6170;42.206;24.142;2022-10-26T05:18:46;99254.91;;;16.92;63.81
12215;BME280;6170;42.206;24.142;2022-10-26T05:21:15;99253.63;;;17.06;63.34
12215;BME280;6170;42.206;24.142;2022-10-26T05:23:44;99263.66;;;17.18;62.67
12215;BME280;6170;42.206;24.142;2022-10-26T05:26:15;99260.63;;;17.37;62.50
12215;BME280;6170;42.206;24.142;2022-10-26T05:28:42;99270.63;;;17.48;62.04
12215;BME280;6170;42.206;24.142;2022-10-26T05:31:11;99270.31;;;17.68;60.98
12215;BME280;6170;42.206;24.142;2022-10-26T05:33:38;99266.75;;;18.14;60.03
12215;BME280;6170;42.206;24.142;2022-10-26T05:36:06;99284.94;;;18.42;59.50
12215;BME280;6170;42.206;24.142;2022-10-26T05:38:34;99295.50;;;19.12;57.86
12215;BME280;6170;42.206;24.142;2022-10-26T05:41:01;99291.50;;;19.31;57.22
12215;BME280;6170;42.206;24.142;2022-10-26T05:43:28;99299.09;;;19.62;56.62
12215;BME280;6170;42.206;24.142;2022-10-26T05:45:55;99305.34;;;20.18;55.55
12215;BME280;6170;42.206;24.142;2022-10-26T05:48:22;99314.81;;;20.54;54.91
12215;BME280;6170;42.206;24.142;2022-10-26T05:50:49;99315.81;;;21.18;52.32
12215;BME280;6170;42.206;24.142;2022-10-26T05:53:17;99317.72;;;21.81;50.90
12215;BME280;6170;42.206;24.142;2022-10-26T05:55:46;99317.66;;;22.08;50.85
12215;BME280;6170;42.206;24.142;2022-10-26T05:58:14;99322.16;;;22.39;50.56
12215;BME280;6170;42.206;24.142;2022-10-26T06:00:51;99326.53;;;23.03;49.96
12215;BME280;6170;42.206;24.142;2022-10-26T06:03:32;99331.25;;;23.68;48.68
12215;BME280;6170;42.206;24.142;2022-10-26T06:06:06;99332.91;;;23.84;47.95
12215;BME280;6170;42.206;24.142;2022-10-26T06:08:34;99336.69;;;24.13;47.27
12215;BME280;6170;42.206;24.142;2022-10-26T06:11:03;99341.50;;;24.57;46.45
12215;BME280;6170;42.206;24.142;2022-10-26T06:13:32;99342.09;;;24.49;47.10
12215;BME280;6170;42.206;24.142;2022-10-26T06:16:16;99340.03;;;24.80;45.94
12215;BME280;6170;42.206;24.142;2022-10-26T06:18:53;99335.25;;;25.05;45.21
12215;BME280;6170;42.206;24.142;2022-10-26T06:21:37;99329.94;;;25.24;45.23
12215;BME280;6170;42.206;24.142;2022-10-26T06:24:11;99337.66;;;25.22;46.09
12215;BME280;6170;42.206;24.142;2022-10-26T06:26:47;99335.97;;;25.26;44.97
12215;BME280;6170;42.206;24.142;2022-10-26T06:29:23;99336.69;;;25.37;45.60
12215;BME280;6170;42.206;24.142;2022-10-26T06:31:54;99341.31;;;24.38;46.41
12215;BME280;6170;42.206;24.142;2022-10-26T06:34:25;99342.94;;;24.39;46.87
12215;BME280;6170;42.206;24.142;2022-10-26T06:36:56;99341.06;;;24.14;47.07
12215;BME280;6170;42.206;24.142;2022-10-26T06:39:27;99342.69;;;24.31;46.37
12215;BME280;6170;42.206;24.142;2022-10-26T06:41:57;99343.53;;;24.26;46.96
12215;BME280;6170;42.206;24.142;2022-10-26T06:44:25;99340.13;;;24.65;46.75
12215;BME280;6170;42.206;24.142;2022-10-26T06:46:57;99338.34;;;24.25;46.76
12215;BME280;6170;42.206;24.142;2022-10-26T06:49:30;99343.59;;;24.80;46.52
12215;BME280;6170;42.206;24.142;2022-10-26T06:52:00;99344.13;;;23.93;47.65
12215;BME280;6170;42.206;24.142;2022-10-26T06:54:39;99356.41;;;23.90;47.86
12215;BME280;6170;42.206;24.142;2022-10-26T06:57:12;99359.13;;;23.35;48.59
12215;BME280;6170;42.206;24.142;2022-10-26T06:59:44;99361.06;;;24.00;48.12
12215;BME280;6170;42.206;24.142;2022-10-26T07:02:13;99342.22;;;23.58;48.45
12215;BME280;6170;42.206;24.142;2022-10-26T07:04:41;99345.50;;;23.45;48.62
12215;BME280;6170;42.206;24.142;2022-10-26T07:07:10;99353.16;;;23.48;48.29
12215;BME280;6170;42.206;24.142;2022-10-26T07:09:38;99335.06;;;23.92;47.28
12215;BME280;6170;42.206;24.142;2022-10-26T07:12:06;99339.69;;;24.17;46.54
12215;BME280;6170;42.206;24.142;2022-10-26T07:14:34;99347.56;;;24.44;nan
12215;BME280;6170;42.206;24.142;2022-10-26T07:17:02;99350.91;;;24.31;47.05
12215;BME280;6170;42.206;24.142;2022-10-26T07:19:29;99334.00;;;23.58;48.23
12215;BME280;6170;42.206;24.142;2022-10-26T07:21:56;99350.41;;;23.93;47.25
12215;BME280;6170;42.206;24.142;2022-10-26T07:24:25;99348.19;;;23.95;47.82
12215;BME280;6170;42.206;24.142;2022-10-26T07:26:53;99340.53;;;23.42;48.17
12215;BME280;6170;42.206;24.142;2022-10-26T07:29:20;99341.63;;;24.16;47.56
12215;BME280;6170;42.206;24.142;2022-10-26T07:31:49;99333.38;;;24.32;47.47
12215;BME280;6170;42.206;24.142;2022-10-26T07:34:16;99337.66;;;24.58;46.89
12215;BME280;6170;42.206;24.142;2022-10-26T07:36:44;99336.44;;;24.00;47.71
12215;BME280;6170;42.206;24.142;2022-10-26T07:39:11;99331.22;;;24.03;47.85
12215;BME280;6170;42.206;24.142;2022-10-26T07:41:38;99331.50;;;24.07;47.64
12215;BME280;6170;42.206;24.142;2022-10-26T07:44:05;99335.06;;;24.07;47.49
12215;BME280;6170;42.206;24.142;2022-10-26T07:46:32;99345.38;;;24.51;47.65
12215;BME280;6170;42.206;24.142;2022-10-26T07:49:01;99356.63;;;24.34;47.55
12215;BME280;6170;42.206;24.142;2022-10-26T07:51:28;99327.53;;;24.58;47.27
12215;BME280;6170;42.206;24.142;2022-10-26T07:53:55;99329.66;;;24.72;46.18
12215;BME280;6170;42.206;24.142;2022-10-26T07:56:22;99325.56;;;24.69;46.23
12215;BME280;6170;42.206;24.142;2022-10-26T07:58:51;99333.47;;;24.76;46.27
12215;BME280;6170;42.206;24.142;2022-10-26T08:01:18;99326.25;;;25.00;46.20
12215;BME280;6170;42.206;24.142;2022-10-26T08:03:45;99330.16;;;24.89;46.10
12215;BME280;6170;42.206;24.142;2022-10-26T08:06:14;99323.81;;;24.98;46.48
12215;BME280;6170;42.206;24.142;2022-10-26T08:08:41;99322.56;;;25.20;45.60
12215;BME280;6170;42.206;24.142;2022-10-26T08:11:08;99326.59;;;25.32;45.73
12215;BME280;6170;42.206;24.142;2022-10-26T08:13:35;99330.47;;;25.31;45.51
12215;BME280;6170;42.206;24.142;2022-10-26T08:16:03;99326.03;;;25.35;44.84
12215;BME280;6170;42.206;24.142;2022-10-26T08:18:31;99333.88;;;25.08;46.11
12215;BME280;6170;42.206;24.142;2022-10-26T08:21:01;99334.91;;;25.61;45.07
12215;BME280;6170;42.206;24.142;2022-10-26T08:23:30;99337.19;;;25.49;45.08
12215;BME280;6170;42.206;24.142;2022-10-26T08:25:58;99311.69;;;25.43;45.26
12215;BME280;6170;42.206;24.142;2022-10-26T08:28:25;99315.13;;;25.64;44.91
12215;BME280;6170;42.206;24.142;2022-10-26T08:30:53;99312.44;;;25.88;45.56
12215;BME280;6170;42.206;24.142;2022-10-26T08:33:21;99302.94;;;26.33;44.36
12215;BME280;6170;42.206;24.142;2022-10-26T08:35:54;99299.03;;;26.34;43.97
12215;BME280;6170;42.206;24.142;2022-10-26T08:38:21;99296.25;;;26.81;43.90
12215;BME280;6170;42.206;24.142;2022-10-26T08:40:50;99299.16;;;26.48;44.17
12215;BME280;6170;42.206;24.142;2022-10-26T08:43:22;99308.06;;;26.40;43.66
12215;BME280;6170;42.206;24.142;2022-10-26T08:45:54;99300.50;;;26.26;43.61
12215;BME280;6170;42.206;24.142;2022-10-26T08:48:27;99304.69;;;26.24;45.47
12215;BME280;6170;42.206;24.142;2022-10-26T08:50:58;99311.81;;;25.96;44.65
12215;BME280;6170;42.206;24.142;2022-10-26T08:53:31;99310.75;;;26.16;45.62
12215;BME280;6170;42.206;24.142;2022-10-26T08:56:05;99308.09;;;26.34;44.92
12215;BME280;6170;42.206;24.142;2022-10-26T08:58:39;99322.50;;;26.50;44.19
12215;BME280;6170;42.206;24.142;2022-10-26T09:01:09;99318.66;;;26.94;42.79
12215;BME280;6170;42.206;24.142;2022-10-26T09:03:36;99309.09;;;26.44;43.48
12215;BME280;6170;42.206;24.142;2022-10-26T09:06:19;99309.94;;;26.87;43.09
12215;BME280;6170;42.206;24.142;2022-10-26T09:08:59;99300.66;;;27.01;42.09
12215;BME280;6170;42.206;24.142;2022-10-26T09:11:40;99305.81;;;27.08;42.29
12215;BME280;6170;42.206;24.142;2022-10-26T09:14:14;99285.09;;;26.73;42.95
12215;BME280;6170;42.206;24.142;2022-10-26T09:16:50;99295.91;;;27.07;42.18
12215;BME280;6170;42.206;24.142;2022-10-26T09:19:36;99296.41;;;27.09;41.95
12215;BME280;6170;42.206;24.142;2022-10-26T09:22:16;99287.44;;;27.73;41.61
12215;BME280;6170;42.206;24.142;2022-10-26T09:24:51;99283.66;;;27.69;40.84
12215;BME280;6170;42.206;24.142;2022-10-26T09:27:23;99278.31;;;27.40;40.99
12215;BME280;6170;42.206;24.142;2022-10-26T09:29:53;99284.72;;;28.00;40.80
12215;BME280;6170;42.206;24.142;2022-10-26T09:32:25;99275.75;;;28.08;41.10
12215;BME280;6170;42.206;24.142;2022-10-26T09:34:57;99264.88;;;28.17;40.41
12215;BME280;6170;42.206;24.142;2022-10-26T09:37:27;99281.50;;;28.12;40.07
12215;BME280;6170;42.206;24.142;2022-10-26T09:39:59;99282.53;;;28.43;40.05
12215;BME280;6170;42.206;24.142;2022-10-26T09:42:37;99277.91;;;28.66;39.71
12215;BME280;6170;42.206;24.142;2022-10-26T09:45:14;99272.31;;;28.17;39.07
12215;BME280;6170;42.206;24.142;2022-10-26T09:47:46;99270.38;;;28.58;39.30
12215;BME280;6170;42.206;24.142;2022-10-26T09:50:22;99272.13;;;28.27;37.54
12215;BME280;6170;42.206;24.142;2022-10-26T09:52:50;99269.75;;;28.20;38.31
12215;BME280;6170;42.206;24.142;2022-10-26T09:55:17;99276.78;;;27.66;39.28
12215;BME280;6170;42.206;24.142;2022-10-26T09:57:49;99266.28;;;27.55;39.22
12215;BME280;6170;42.206;24.142;2022-10-26T10:00:19;99279.97;;;28.20;40.07
12215;BME280;6170;42.206;24.142;2022-10-26T10:02:50;99258.94;;;28.24;38.93
12215;BME280;6170;42.206;24.142;2022-10-26T10:05:22;99254.94;;;28.57;39.15
12215;BME280;6170;42.206;24.142;2022-10-26T10:07:50;99253.00;;;28.57;39.33
12215;BME280;6170;42.206;24.142;2022-10-26T10:10:20;99247.78;;;28.56;39.09
12215;BME280;6170;42.206;24.142;2022-10-26T10:12:49;99232.50;;;28.86;37.71
12215;BME280;6170;42.206;24.142;2022-10-26T10:15:19;99234.56;;;29.16;39.43
12215;BME280;6170;42.206;24.142;2022-10-26T10:17:51;99244.06;;;29.46;38.43
12215;BME280;6170;42.206;24.142;2022-10-26T10:20:22;99241.59;;;29.44;37.38
12215;BME280;6170;42.206;24.142;2022-10-26T10:22:54;99233.78;;;28.80;39.36
12215;BME280;6170;42.206;24.142;2022-10-26T10:25:30;99222.72;;;28.30;38.50
12215;BME280;6170;42.206;24.142;2022-10-26T10:28:00;99231.78;;;28.44;39.01
12215;BME280;6170;42.206;24.142;2022-10-26T10:30:29;99228.16;;;29.07;37.92
12215;BME280;6170;42.206;24.142;2022-10-26T10:33:04;99222.06;;;29.63;38.18
12215;BME280;6170;42.206;24.142;2022-10-26T10:35:32;99216.84;;;29.17;38.01
12215;BME280;6170;42.206;24.142;2022-10-26T10:37:59;99216.63;;;29.27;38.56
12215;BME280;6170;42.206;24.142;2022-10-26T10:40:29;99206.75;;;29.13;36.21
12215;BME280;6170;42.206;24.142;2022-10-26T10:43:05;99206.50;;;29.00;37.80
12215;BME280;6170;42.206;24.142;2022-10-26T10:45:37;99199.19;;;29.18;37.56
12215;BME280;6170;42.206;24.142;2022-10-26T10:48:13;99197.06;;;29.37;37.78
12215;BME280;6170;42.206;24.142;2022-10-26T10:50:51;99195.06;;;29.29;37.91
12215;BME280;6170;42.206;24.142;2022-10-26T10:53:20;99190.66;;;29.28;37.80
12215;BME280;6170;42.206;24.142;2022-10-26T10:56:16;99186.91;;;29.47;38.04
12215;BME280;6170;42.206;24.142;2022-10-26T10:58:58;99190.34;;;29.08;39.15
12215;BME280;6170;42.206;24.142;2022-10-26T11:01:31;99180.63;;;29.32;38.62
12215;BME280;6170;42.206;24.142;2022-10-26T11:04:20;99183.44;;;28.96;38.09
12215;BME280;6170;42.206;24.142;2022-10-26T11:06:59;99190.47;;;29.47;37.71
12215;BME280;6170;42.206;24.142;2022-10-26T11:09:30;99171.72;;;29.66;36.62
12215;BME280;6170;42.206;24.142;2022-10-26T11:12:02;99180.63;;;29.32;37.41
12215;BME280;6170;42.206;24.142;2022-10-26T11:14:38;99187.03;;;29.19;36.79
12215;BME280;6170;42.206;24.142;2022-10-26T11:17:13;99177.28;;;28.64;37.17
12215;BME280;6170;42.206;24.142;2022-10-26T11:19:44;99184.63;;;29.26;37.58
12215;BME280;6170;42.206;24.142;2022-10-26T11:22:17;99167.13;;;28.86;36.79
12215;BME280;6170;42.206;24.142;2022-10-26T11:24:48;99171.47;;;29.01;37.21
12215;BME280;6170;42.206;24.142;2022-10-26T11:27:17;99172.41;;;28.96;36.89
12215;BME280;6170;42.206;24.142;2022-10-26T11:29:55;99162.53;;;29.49;38.09
12215;BME280;6170;42.206;24.142;2022-10-26T11:32:29;99157.03;;;29.57;35.61
12215;BME280;6170;42.206;24.142;2022-10-26T11:35:03;99149.25;;;29.28;37.18
12215;BME280;6170;42.206;24.142;2022-10-26T11:37:35;99154.09;;;29.54;37.33
12215;BME280;6170;42.206;24.142;2022-10-26T11:40:15;99152.78;;;28.98;36.67
12215;BME280;6170;42.206;24.142;2022-10-26T11:42:50;99157.22;;;29.30;36.52
12215;BME280;6170;42.206;24.142;2022-10-26T11:45:24;99152.78;;;29.42;36.46
12215;BME280;6170;42.206;24.142;2022-10-26T11:47:59;99138.94;;;29.34;35.88
12215;BME280;6170;42.206;24.142;2022-10-26T11:50:32;99143.25;;;29.57;36.76
12215;BME280;6170;42.206;24.142;2022-10-26T11:53:04;99147.38;;;29.15;36.44
12215;BME280;6170;42.206;24.142;2022-10-26T11:55:35;99142.22;;;29.22;36.47
12215;BME280;6170;42.206;24.142;2022-10-26T11:58:04;99138.97;;;29.42;37.24
12215;BME280;6170;42.206;24.142;2022-10-26T12:00:33;99148.28;;;29.55;36.43
12215;BME280;6170;42.206;24.142;2022-10-26T12:03:09;99147.56;;;29.80;35.87
12215;BME280;6170;42.206;24.142;2022-10-26T12:05:43;99127.19;;;29.59;35.09
12215;BME280;6170;42.206;24.142;2022-10-26T12:08:15;99134.47;;;29.55;36.06
12215;BME280;6170;42.206;24.142;2022-10-26T12:10:48;99148.44;;;29.59;35.64
12215;BME280;6170;42.206;24.142;2022-10-26T12:13:24;99135.44;;;29.28;35.43
12215;BME280;6170;42.206;24.142;2022-10-26T12:16:02;99129.16;;;28.83;34.80
12215;BME280;6170;42.206;24.142;2022-10-26T12:18:38;99150.41;;;28.69;35.84
12215;BME280;6170;42.206;24.142;2022-10-26T12:21:08;99130.22;;;28.24;34.83
12215;BME280;6170;42.206;24.142;2022-10-26T12:23:38;99126.06;;;27.99;35.60
12215;BME280;6170;42.206;24.142;2022-10-26T12:26:37;99120.56;;;27.86;36.53
12215;BME280;6170;42.206;24.142;2022-10-26T12:31:56;99136.38;;;27.94;36.05
12215;BME280;6170;42.206;24.142;2022-10-26T12:34:24;99127.72;;;28.00;35.82
12215;BME280;6170;42.206;24.142;2022-10-26T12:37:22;99121.91;;;27.75;35.98
12215;BME280;6170;42.206;24.142;2022-10-26T12:39:50;99123.94;;;27.83;35.84
12215;BME280;6170;42.206;24.142;2022-10-26T12:42:28;99127.72;;;28.00;35.78
12215;BME280;6170;42.206;24.142;2022-10-26T12:45:13;99131.91;;;27.57;37.63
12215;BME280;6170;42.206;24.142;2022-10-26T12:48:02;99137.03;;;27.45;37.04
12215;BME280;6170;42.206;24.142;2022-10-26T12:50:30;99127.09;;;27.49;36.97
12215;BME280;6170;42.206;24.142;2022-10-26T12:52:58;99117.38;;;27.38;36.54
12215;BME280;6170;42.206;24.142;2022-10-26T12:56:03;99130.00;;;27.25;37.18
12215;BME280;6170;42.206;24.142;2022-10-26T12:59:00;99123.38;;;27.40;36.40
12215;BME280;6170;42.206;24.142;2022-10-26T13:01:54;99126.13;;;27.26;36.69
12215;BME280;6170;42.206;24.142;2022-10-26T13:04:38;99129.50;;;26.91;37.43
12215;BME280;6170;42.206;24.142;2022-10-26T13:07:17;99123.00;;;27.00;36.45
12215;BME280;6170;42.206;24.142;2022-10-26T13:09:59;99142.53;;;27.31;37.14
12215;BME280;6170;42.206;24.142;2022-10-26T13:12:35;99117.81;;;26.80;37.58
12215;BME280;6170;42.206;24.142;2022-10-26T13:15:13;99123.41;;;26.75;37.42
12215;BME280;6170;42.206;24.142;2022-10-26T13:17:52;99140.09;;;26.97;37.17
12215;BME280;6170;42.206;24.142;2022-10-26T13:20:22;99125.16;;;26.85;37.52
12215;BME280;6170;42.206;24.142;2022-10-26T13:22:50;99125.63;;;26.92;37.33
12215;BME280;6170;42.206;24.142;2022-10-26T13:25:21;99123.81;;;26.82;36.73
12215;BME280;6170;42.206;24.142;2022-10-26T13:28:03;99119.69;;;26.66;37.64
12215;BME280;6170;42.206;24.142;2022-10-26T13:30:44;99141.97;;;26.64;37.29
12215;BME280;6170;42.206;24.142;2022-10-26T13:33:23;99114.81;;;26.63;38.06